sensor_id;sensor_type;location;lat;lon;timestamp;pressure;altitude;pressure_sealevel;temperature;humidity
19676;BME280;39539;52.202;9.876;2022-12-07T00:01:23;100647.03;;;3.41;100.00
19676;BME280;39539;52.202;9.876;2022-12-07T00:03:51;100638.16;;;3.42;100.00
19676;BME280;39539;52.202;9.876;2022-12-07T00:06:17;100644.91;;;3.45;100.00
19676;BME280;39539;52.202;9.876;2022-12-07T00:08:44;100628.16;;;3.37;100.00
19676;BME280;39539;52.202;9.876;2022-12-07T00:11:21;100635.84;;;3.39;100.00
19676;BME280;39539;52.202;9.876;2022-12-07T00:13:47;100629.31;;;3.43;100.00
19676;BME280;39539;52.202;9.876;2022-12-07T00:16:18;100623.38;;;3.41;100.00
19676;BME280;39539;52.202;9.876;2022-12-07T00:18:44;100625.22;;;3.49;100.00
19676;BME280;39539;52.202;9.876;2022-12-07T00:21:17;100620.41;;;3.36;100.00
19676;BME280;39539;52.202;9.876;2022-12-07T00:23:44;100618.78;;;3.35;100.00
19676;BME280;39539;52.202;9.876;2022-12-07T00:28:37;100614.34;;;3.44;100.00
19676;BME280;39539;52.202;9.876;2022-12-07T00:31:09;100618.44;;;3.38;100.00
19676;BME280;39539;52.202;9.876;2022-12-07T00:33:35;100609.25;;;3.42;100.00
19676;BME280;39539;52.202;9.876;2022-12-07T00:36:03;100606.97;;;3.47;100.00
19676;BME280;39539;52.202;9.876;2022-12-07T00:38:32;100611.25;;;3.56;100.00
19676;BME280;39539;52.202;9.876;2022-12-07T00:40:59;100609.47;;;3.57;100.00
19676;BME280;39539;52.202;9.876;2022-12-07T00:43:26;100599.09;;;3.55;100.00
19676;BME280;39539;52.202;9.876;2022-12-07T00:45:52;100607.66;;;3.57;100.00
19676;BME280;39539;52.202;9.876;2022-12-07T00:48:17;100597.63;;;3.61;100.00
19676;BME280;39539;52.202;9.876;2022-12-07T00:50:43;100588.09;;;3.60;100.00
19676;BME280;39539;52.202;9.876;2022-12-07T00:53:08;100596.81;;;3.60;100.00
19676;BME280;39539;52.202;9.876;2022-12-07T00:55:34;100590.09;;;3.66;100.00
19676;BME280;39539;52.202;9.876;2022-12-07T00:58:00;100573.00;;;3.54;100.00
19676;BME280;39539;52.202;9.876;2022-12-07T01:00:25;100576.78;;;3.59;100.00
19676;BME280;39539;52.202;9.876;2022-12-07T01:02:50;100568.91;;;3.59;100.00
19676;BME280;39539;52.202;9.876;2022-12-07T01:05:16;100577.75;;;3.58;100.00
19676;BME280;39539;52.202;9.876;2022-12-07T01:07:41;100560.16;;;3.51;100.00
19676;BME280;39539;52.202;9.876;2022-12-07T01:10:07;100577.25;;;3.55;100.00
19676;BME280;39539;52.202;9.876;2022-12-07T01:12:32;100575.44;;;3.55;100.00
19676;BME280;39539;52.202;9.876;2022-12-07T01:14:58;100576.78;;;3.59;100.00
19676;BME280;39539;52.202;9.876;2022-12-07T01:17:23;100573.16;;;3.60;100.00
19676;BME280;39539;52.202;9.876;2022-12-07T01:19:48;100573.31;;;3.59;100.00
19676;BME280;39539;52.202;9.876;2022-12-07T01:22:14;100568.72;;;3.61;100.00
19676;BME280;39539;52.202;9.876;2022-12-07T01:24:39;100577.41;;;3.62;100.00
19676;BME280;39539;52.202;9.876;2022-12-07T01:27:04;100574.78;;;3.53;100.00
19676;BME280;39539;52.202;9.876;2022-12-07T01:29:30;100575.44;;;3.55;100.00
19676;BME280;39539;52.202;9.876;2022-12-07T01:31:55;100576.94;;;3.58;100.00
19676;BME280;39539;52.202;9.876;2022-12-07T01:34:20;100567.22;;;3.58;100.00
19676;BME280;39539;52.202;9.876;2022-12-07T01:36:47;100564.59;;;3.58;100.00
19676;BME280;39539;52.202;9.876;2022-12-07T01:39:12;100570.53;;;3.60;100.00
19676;BME280;39539;52.202;9.876;2022-12-07T01:41:40;100563.63;;;3.68;100.00
19676;BME280;39539;52.202;9.876;2022-12-07T01:46:48;100564.94;;;3.72;100.00
19676;BME280;39539;52.202;9.876;2022-12-07T01:49:38;100557.06;;;3.64;100.00
19676;BME280;39539;52.202;9.876;2022-12-07T01:52:31;100564.63;;;3.67;100.00
19676;BME280;39539;52.202;9.876;2022-12-07T01:55:02;100555.09;;;3.66;100.00
19676;BME280;39539;52.202;9.876;2022-12-07T01:57:28;100559.50;;;3.73;100.00
19676;BME280;39539;52.202;9.876;2022-12-07T01:59:56;100565.91;;;3.71;100.00
19676;BME280;39539;52.202;9.876;2022-12-07T02:02:34;100563.94;;;3.73;100.00
19676;BME280;39539;52.202;9.876;2022-12-07T02:05:01;100564.94;;;3.80;100.00
19676;BME280;39539;52.202;9.876;2022-12-07T02:07:28;100568.38;;;3.80;100.00
19676;BME280;39539;52.202;9.876;2022-12-07T02:09:54;100556.06;;;3.81;100.00
19676;BME280;39539;52.202;9.876;2022-12-07T02:12:20;100559.03;;;3.86;100.00
19676;BME280;39539;52.202;9.876;2022-12-07T02:14:48;100550.81;;;3.81;100.00
19676;BME280;39539;52.202;9.876;2022-12-07T02:20:41;100554.44;;;3.72;100.00
19676;BME280;39539;52.202;9.876;2022-12-07T02:23:20;100553.78;;;3.70;100.00
19676;BME280;39539;52.202;9.876;2022-12-07T02:31:19;100523.22;;;3.52;100.00
19676;BME280;39539;52.202;9.876;2022-12-07T02:33:53;100529.63;;;3.58;100.00
19676;BME280;39539;52.202;9.876;2022-12-07T02:36:27;100535.53;;;3.52;100.00
19676;BME280;39539;52.202;9.876;2022-12-07T02:39:04;100532.44;;;3.40;100.00
19676;BME280;39539;52.202;9.876;2022-12-07T02:41:35;100525.19;;;3.18;100.00
19676;BME280;39539;52.202;9.876;2022-12-07T02:44:14;100527.78;;;3.01;100.00
19676;BME280;39539;52.202;9.876;2022-12-07T02:46:51;100516.94;;;2.96;100.00
19676;BME280;39539;52.202;9.876;2022-12-07T02:49:18;100521.50;;;2.94;100.00
19676;BME280;39539;52.202;9.876;2022-12-07T02:51:46;100516.25;;;2.94;100.00
19676;BME280;39539;52.202;9.876;2022-12-07T02:54:14;100501.97;;;2.80;100.00
19676;BME280;39539;52.202;9.876;2022-12-07T02:56:53;100507.38;;;2.79;100.00
19676;BME280;39539;52.202;9.876;2022-12-07T02:59:29;100518.00;;;2.69;100.00
19676;BME280;39539;52.202;9.876;2022-12-07T03:04:36;100514.97;;;2.47;100.00
19676;BME280;39539;52.202;9.876;2022-12-07T03:07:12;100502.00;;;2.46;100.00
19676;BME280;39539;52.202;9.876;2022-12-07T03:10:13;100520.72;;;2.51;100.00
19676;BME280;39539;52.202;9.876;2022-12-07T03:17:59;100509.22;;;2.44;100.00
19676;BME280;39539;52.202;9.876;2022-12-07T03:20:26;100506.25;;;2.39;100.00
19676;BME280;39539;52.202;9.876;2022-12-07T03:22:54;100514.94;;;2.39;100.00
19676;BME280;39539;52.202;9.876;2022-12-07T03:25:20;100504.63;;;2.38;100.00
19676;BME280;39539;52.202;9.876;2022-12-07T03:27:58;100510.88;;;2.45;100.00
19676;BME280;39539;52.202;9.876;2022-12-07T03:31:30;100514.81;;;2.49;100.00
19676;BME280;39539;52.202;9.876;2022-12-07T03:33:44;100500.38;;;2.45;100.00
19676;BME280;39539;52.202;9.876;2022-12-07T03:36:27;100503.34;;;2.50;100.00
19676;BME280;39539;52.202;9.876;2022-12-07T03:39:11;100512.84;;;2.51;100.00
19676;BME280;39539;52.202;9.876;2022-12-07T03:41:38;100493.19;;;2.47;100.00
19676;BME280;39539;52.202;9.876;2022-12-07T03:44:04;100495.47;;;2.50;100.00
19676;BME280;39539;52.202;9.876;2022-12-07T03:46:41;100493.53;;;2.52;100.00
19676;BME280;39539;52.202;9.876;2022-12-07T03:51:57;100508.34;;;2.69;100.00
19676;BME280;39539;52.202;9.876;2022-12-07T03:54:30;100511.91;;;2.68;100.00
19676;BME280;39539;52.202;9.876;2022-12-07T03:56:58;100506.34;;;2.72;100.00
19676;BME280;39539;52.202;9.876;2022-12-07T03:59:24;100500.44;;;2.61;100.00
19676;BME280;39539;52.202;9.876;2022-12-07T04:02:02;100514.88;;;2.65;100.00
19676;BME280;39539;52.202;9.876;2022-12-07T04:04:28;100506.84;;;2.67;100.00
19676;BME280;39539;52.202;9.876;2022-12-07T04:06:54;100492.53;;;2.53;100.00
19676;BME280;39539;52.202;9.876;2022-12-07T04:09:19;100512.38;;;2.56;100.00
19676;BME280;39539;52.202;9.876;2022-12-07T04:11:45;100517.13;;;2.52;100.00
19676;BME280;39539;52.202;9.876;2022-12-07T04:14:10;100516.81;;;2.55;100.00
19676;BME280;39539;52.202;9.876;2022-12-07T04:16:50;100512.19;;;2.49;100.00
19676;BME280;39539;52.202;9.876;2022-12-07T04:19:19;100502.97;;;2.37;100.00
19676;BME280;39539;52.202;9.876;2022-12-07T04:21:45;100504.75;;;2.36;100.00
19676;BME280;39539;52.202;9.876;2022-12-07T04:24:11;100502.00;;;2.38;100.00
19676;BME280;39539;52.202;9.876;2022-12-07T04:26:37;100510.91;;;2.53;100.00
19676;BME280;39539;52.202;9.876;2022-12-07T04:29:02;100515.69;;;2.66;100.00
19676;BME280;39539;52.202;9.876;2022-12-07T04:31:28;100513.91;;;2.66;100.00
19676;BME280;39539;52.202;9.876;2022-12-07T04:33:53;100518.88;;;2.78;100.00
19676;BME280;39539;52.202;9.876;2022-12-07T04:36:18;100497.84;;;2.69;100.00
19676;BME280;39539;52.202;9.876;2022-12-07T04:38:45;100515.28;;;2.87;100.00
19676;BME280;39539;52.202;9.876;2022-12-07T04:41:11;100512.78;;;2.85;100.00
19676;BME280;39539;52.202;9.876;2022-12-07T04:43:36;100510.69;;;2.89;100.00
19676;BME280;39539;52.202;9.876;2022-12-07T04:46:01;100501.81;;;2.90;100.00
19676;BME280;39539;52.202;9.876;2022-12-07T04:48:28;100517.09;;;3.03;100.00
19676;BME280;39539;52.202;9.876;2022-12-07T04:50:55;100501.66;;;3.00;100.00
19676;BME280;39539;52.202;9.876;2022-12-07T04:53:20;100512.84;;;3.10;100.00
19676;BME280;39539;52.202;9.876;2022-12-07T04:55:46;100504.31;;;3.08;100.00
19676;BME280;39539;52.202;9.876;2022-12-07T04:58:12;100501.88;;;3.14;100.00
19676;BME280;39539;52.202;9.876;2022-12-07T05:00:38;100493.16;;;3.14;100.00
19676;BME280;39539;52.202;9.876;2022-12-07T05:03:04;100505.66;;;3.20;100.00
19676;BME280;39539;52.202;9.876;2022-12-07T05:05:29;100497.59;;;3.22;100.00
19676;BME280;39539;52.202;9.876;2022-12-07T05:07:54;100474.94;;;3.12;100.00
19676;BME280;39539;52.202;9.876;2022-12-07T05:10:20;100503.19;;;3.27;100.00
19676;BME280;39539;52.202;9.876;2022-12-07T05:12:45;100480.19;;;3.12;100.00
19676;BME280;39539;52.202;9.876;2022-12-07T05:15:12;100512.22;;;3.24;100.00
19676;BME280;39539;52.202;9.876;2022-12-07T05:17:37;100496.63;;;3.14;100.00
19676;BME280;39539;52.202;9.876;2022-12-07T05:20:03;100507.28;;;3.21;100.00
19676;BME280;39539;52.202;9.876;2022-12-07T05:22:29;100501.69;;;3.08;100.00
19676;BME280;39539;52.202;9.876;2022-12-07T05:24:55;100499.72;;;3.10;100.00
19676;BME280;39539;52.202;9.876;2022-12-07T05:27:20;100491.03;;;3.18;100.00
19676;BME280;39539;52.202;9.876;2022-12-07T05:29:46;100480.03;;;3.14;100.00
19676;BME280;39539;52.202;9.876;2022-12-07T05:32:11;100493.97;;;3.23;100.00
19676;BME280;39539;52.202;9.876;2022-12-07T05:34:37;100493.34;;;3.21;100.00
19676;BME280;39539;52.202;9.876;2022-12-07T05:37:02;100485.78;;;3.18;100.00
19676;BME280;39539;52.202;9.876;2022-12-07T05:39:27;100482.50;;;3.15;100.00
19676;BME280;39539;52.202;9.876;2022-12-07T05:41:53;100466.06;;;3.05;100.00
19676;BME280;39539;52.202;9.876;2022-12-07T05:44:37;100483.50;;;3.14;100.00
19676;BME280;39539;52.202;9.876;2022-12-07T05:47:03;100486.09;;;3.23;100.00
19676;BME280;39539;52.202;9.876;2022-12-07T05:49:28;100490.88;;;3.27;100.00
19676;BME280;39539;52.202;9.876;2022-12-07T05:51:53;100492.03;;;3.33;100.00
19676;BME280;39539;52.202;9.876;2022-12-07T05:54:19;100483.81;;;3.36;100.00
19676;BME280;39539;52.202;9.876;2022-12-07T05:56:45;100491.34;;;3.31;100.00
19676;BME280;39539;52.202;9.876;2022-12-07T05:59:10;100502.88;;;3.38;100.00
19676;BME280;39539;52.202;9.876;2022-12-07T06:04:17;100487.09;;;3.38;100.00
19676;BME280;39539;52.202;9.876;2022-12-07T06:06:42;100474.78;;;3.38;100.00
19676;BME280;39539;52.202;9.876;2022-12-07T06:09:08;100492.03;;;3.41;100.00
19676;BME280;39539;52.202;9.876;2022-12-07T06:11:35;100494.66;;;3.49;100.00
19676;BME280;39539;52.202;9.876;2022-12-07T06:14:19;100492.50;;;3.53;100.00
19676;BME280;39539;52.202;9.876;2022-12-07T06:16:46;100498.25;;;3.56;100.00
19676;BME280;39539;52.202;9.876;2022-12-07T06:19:11;100495.63;;;3.56;100.00
19676;BME280;39539;52.202;9.876;2022-12-07T06:21:38;100494.00;;;3.55;100.00
19676;BME280;39539;52.202;9.876;2022-12-07T06:24:04;100497.28;;;3.57;100.00
19676;BME280;39539;52.202;9.876;2022-12-07T06:26:29;100497.75;;;3.61;100.00
19676;BME280;39539;52.202;9.876;2022-12-07T06:28:56;100493.66;;;3.58;100.00
19676;BME280;39539;52.202;9.876;2022-12-07T06:31:22;100489.22;;;3.59;100.00
19676;BME280;39539;52.202;9.876;2022-12-07T06:33:48;100493.81;;;3.65;100.00
19676;BME280;39539;52.202;9.876;2022-12-07T06:36:15;100503.81;;;3.70;100.00
19676;BME280;39539;52.202;9.876;2022-12-07T06:38:40;100509.41;;;3.67;100.00
19676;BME280;39539;52.202;9.876;2022-12-07T06:41:06;100498.09;;;3.58;100.00
19676;BME280;39539;52.202;9.876;2022-12-07T06:43:32;100502.81;;;3.71;100.00
19676;BME280;39539;52.202;9.876;2022-12-07T06:45:57;100503.50;;;3.73;100.00
19676;BME280;39539;52.202;9.876;2022-12-07T06:48:23;100492.50;;;3.69;100.00
19676;BME280;39539;52.202;9.876;2022-12-07T06:50:50;100507.59;;;3.75;100.00
19676;BME280;39539;52.202;9.876;2022-12-07T06:53:15;100493.66;;;3.67;100.00
19676;BME280;39539;52.202;9.876;2022-12-07T06:55:41;100502.69;;;3.72;100.00
19676;BME280;39539;52.202;9.876;2022-12-07T06:58:09;100496.94;;;3.77;100.00
19676;BME280;39539;52.202;9.876;2022-12-07T07:00:35;100494.47;;;3.75;100.00
19676;BME280;39539;52.202;9.876;2022-12-07T07:03:01;100494.47;;;3.75;100.00
19676;BME280;39539;52.202;9.876;2022-12-07T07:05:26;100501.84;;;3.80;100.00
19676;BME280;39539;52.202;9.876;2022-12-07T07:07:52;100501.84;;;3.80;100.00
19676;BME280;39539;52.202;9.876;2022-12-07T07:10:17;100498.56;;;3.86;100.00
19676;BME280;39539;52.202;9.876;2022-12-07T07:12:43;100480.84;;;3.64;100.00
19676;BME280;39539;52.202;9.876;2022-12-07T07:15:09;100502.81;;;3.79;100.00
19676;BME280;39539;52.202;9.876;2022-12-07T07:17:35;100505.78;;;3.76;100.00
19676;BME280;39539;52.202;9.876;2022-12-07T07:20:00;100505.97;;;3.82;100.00
19676;BME280;39539;52.202;9.876;2022-12-07T07:22:26;100507.13;;;3.80;100.00
19676;BME280;39539;52.202;9.876;2022-12-07T07:24:51;100507.13;;;3.80;100.00
19676;BME280;39539;52.202;9.876;2022-12-07T07:27:18;100510.41;;;3.66;100.00
19676;BME280;39539;52.202;9.876;2022-12-07T07:29:44;100497.28;;;3.66;100.00
19676;BME280;39539;52.202;9.876;2022-12-07T07:32:11;100510.56;;;3.64;100.00
19676;BME280;39539;52.202;9.876;2022-12-07T07:34:37;100512.84;;;3.75;100.00
19676;BME280;39539;52.202;9.876;2022-12-07T07:37:06;100516.31;;;3.76;100.00
19676;BME280;39539;52.202;9.876;2022-12-07T07:39:31;100523.22;;;3.77;100.00
19676;BME280;39539;52.202;9.876;2022-12-07T07:41:57;100520.88;;;3.82;100.00
19676;BME280;39539;52.202;9.876;2022-12-07T07:44:22;100516.97;;;3.78;100.00
19676;BME280;39539;52.202;9.876;2022-12-07T07:46:47;100531.09;;;3.77;100.00
19676;BME280;39539;52.202;9.876;2022-12-07T07:49:13;100523.84;;;3.79;100.00
19676;BME280;39539;52.202;9.876;2022-12-07T07:51:38;100517.13;;;3.76;100.00
19676;BME280;39539;52.202;9.876;2022-12-07T07:54:04;100510.91;;;3.69;100.00
19676;BME280;39539;52.202;9.876;2022-12-07T07:56:31;100531.75;;;3.79;100.00
19676;BME280;39539;52.202;9.876;2022-12-07T07:58:57;100518.78;;;3.77;100.00
19676;BME280;39539;52.202;9.876;2022-12-07T08:01:22;100524.69;;;3.79;100.00
19676;BME280;39539;52.202;9.876;2022-12-07T08:03:48;100518.94;;;3.68;100.00
19676;BME280;39539;52.202;9.876;2022-12-07T08:06:13;100535.03;;;3.73;100.00
19676;BME280;39539;52.202;9.876;2022-12-07T08:08:38;100526.66;;;3.69;100.00
19676;BME280;39539;52.202;9.876;2022-12-07T08:11:10;100521.88;;;3.81;100.00
19676;BME280;39539;52.202;9.876;2022-12-07T08:13:36;100525.84;;;3.85;100.00
19676;BME280;39539;52.202;9.876;2022-12-07T08:16:17;100525.84;;;3.77;100.00
19676;BME280;39539;52.202;9.876;2022-12-07T08:18:42;100523.56;;;3.74;100.00
19676;BME280;39539;52.202;9.876;2022-12-07T08:21:12;100519.94;;;3.75;100.00
19676;BME280;39539;52.202;9.876;2022-12-07T08:23:39;100523.69;;;3.80;100.00
19676;BME280;39539;52.202;9.876;2022-12-07T08:26:08;100532.06;;;3.92;100.00
19676;BME280;39539;52.202;9.876;2022-12-07T08:28:34;100534.03;;;3.98;100.00
19676;BME280;39539;52.202;9.876;2022-12-07T08:31:07;100502.13;;;3.93;100.00
19676;BME280;39539;52.202;9.876;2022-12-07T08:33:34;100509.03;;;4.11;100.00
19676;BME280;39539;52.202;9.876;2022-12-07T08:36:05;100512.59;;;4.26;100.00
19676;BME280;39539;52.202;9.876;2022-12-07T08:38:37;100506.50;;;4.25;100.00
19676;BME280;39539;52.202;9.876;2022-12-07T08:41:03;100496.94;;;4.33;100.00
19676;BME280;39539;52.202;9.876;2022-12-07T08:43:31;100508.94;;;4.35;100.00
19676;BME280;39539;52.202;9.876;2022-12-07T08:46:09;100522.50;;;4.55;100.00
19676;BME280;39539;52.202;9.876;2022-12-07T08:49:09;100519.38;;;4.60;100.00
19676;BME280;39539;52.202;9.876;2022-12-07T08:51:37;100516.00;;;4.74;100.00
19676;BME280;39539;52.202;9.876;2022-12-07T08:54:05;100512.63;;;4.88;100.00
19676;BME280;39539;52.202;9.876;2022-12-07T08:56:42;100511.25;;;5.01;100.00
19676;BME280;39539;52.202;9.876;2022-12-07T08:59:09;100527.00;;;5.09;100.00
19676;BME280;39539;52.202;9.876;2022-12-07T09:01:44;100533.88;;;5.18;100.00
19676;BME280;39539;52.202;9.876;2022-12-07T09:04:10;100523.16;;;5.20;100.00
19676;BME280;39539;52.202;9.876;2022-12-07T09:06:36;100528.00;;;5.31;100.00
19676;BME280;39539;52.202;9.876;2022-12-07T09:09:02;100527.34;;;5.52;100.00
19676;BME280;39539;52.202;9.876;2022-12-07T09:11:28;100526.91;;;5.63;100.00
19676;BME280;39539;52.202;9.876;2022-12-07T09:13:53;100533.31;;;5.69;100.00
19676;BME280;39539;52.202;9.876;2022-12-07T09:16:19;100527.41;;;5.67;100.00
19676;BME280;39539;52.202;9.876;2022-12-07T09:18:50;100518.94;;;5.71;100.00
19676;BME280;39539;52.202;9.876;2022-12-07T09:21:16;100529.03;;;5.68;100.00
19676;BME280;39539;52.202;9.876;2022-12-07T09:23:42;100516.41;;;5.40;100.00
19676;BME280;39539;52.202;9.876;2022-12-07T09:26:08;100527.91;;;5.24;100.00
19676;BME280;39539;52.202;9.876;2022-12-07T09:28:33;100516.16;;;5.04;100.00
19676;BME280;39539;52.202;9.876;2022-12-07T09:30:59;100523.03;;;5.13;100.00
19676;BME280;39539;52.202;9.876;2022-12-07T09:33:25;100520.03;;;5.16;100.00
19676;BME280;39539;52.202;9.876;2022-12-07T09:35:52;100494.50;;;4.93;100.00
19676;BME280;39539;52.202;9.876;2022-12-07T09:38:19;100525.72;;;5.28;100.00
19676;BME280;39539;52.202;9.876;2022-12-07T09:40:46;100529.94;;;5.37;100.00
19676;BME280;39539;52.202;9.876;2022-12-07T09:43:15;100514.47;;;5.34;100.00
19676;BME280;39539;52.202;9.876;2022-12-07T09:45:44;100508.09;;;5.28;100.00
19676;BME280;39539;52.202;9.876;2022-12-07T09:48:21;100507.44;;;5.26;100.00
19676;BME280;39539;52.202;9.876;2022-12-07T09:50:50;100489.47;;;5.30;100.00
19676;BME280;39539;52.202;9.876;2022-12-07T09:53:28;100498.59;;;5.42;100.00
19676;BME280;39539;52.202;9.876;2022-12-07T09:55:55;100487.59;;;5.38;100.00
19676;BME280;39539;52.202;9.876;2022-12-07T09:58:27;100478.63;;;5.48;100.00
19676;BME280;39539;52.202;9.876;2022-12-07T10:01:11;100499.50;;;5.72;100.00
19676;BME280;39539;52.202;9.876;2022-12-07T10:03:40;100493.59;;;5.85;100.00
19676;BME280;39539;52.202;9.876;2022-12-07T10:06:06;100500.22;;;6.04;100.00
19676;BME280;39539;52.202;9.876;2022-12-07T10:08:33;100505.22;;;6.28;100.00
19676;BME280;39539;52.202;9.876;2022-12-07T10:11:02;100505.38;;;6.42;100.00
19676;BME280;39539;52.202;9.876;2022-12-07T10:13:47;100507.66;;;6.45;100.00
19676;BME280;39539;52.202;9.876;2022-12-07T10:16:35;100499.91;;;6.58;100.00
19676;BME280;39539;52.202;9.876;2022-12-07T10:21:59;100485.28;;;6.77;100.00
19676;BME280;39539;52.202;9.876;2022-12-07T10:24:27;100489.56;;;6.78;100.00
19676;BME280;39539;52.202;9.876;2022-12-07T10:26:53;100488.44;;;6.87;100.00
19676;BME280;39539;52.202;9.876;2022-12-07T10:29:36;100492.41;;;6.77;100.00
19676;BME280;39539;52.202;9.876;2022-12-07T10:32:05;100492.41;;;6.77;100.00
19676;BME280;39539;52.202;9.876;2022-12-07T10:34:37;100487.19;;;6.83;100.00
19676;BME280;39539;52.202;9.876;2022-12-07T10:39:43;100468.50;;;6.34;100.00
19676;BME280;39539;52.202;9.876;2022-12-07T10:44:43;100472.50;;;6.44;100.00
19676;BME280;39539;52.202;9.876;2022-12-07T10:50:10;100466.41;;;6.44;100.00
19676;BME280;39539;52.202;9.876;2022-12-07T10:53:01;100466.97;;;6.24;100.00
19676;BME280;39539;52.202;9.876;2022-12-07T11:01:26;100462.25;;;6.05;100.00
19676;BME280;39539;52.202;9.876;2022-12-07T11:07:17;100430.22;;;5.78;100.00
19676;BME280;39539;52.202;9.876;2022-12-07T11:09:42;100437.91;;;6.03;100.00
19676;BME280;39539;52.202;9.876;2022-12-07T11:14:52;100446.78;;;6.32;100.00
19676;BME280;39539;52.202;9.876;2022-12-07T11:23:04;100438.16;;;6.59;100.00
19676;BME280;39539;52.202;9.876;2022-12-07T11:34:13;100418.34;;;6.34;100.00
19676;BME280;39539;52.202;9.876;2022-12-07T11:36:50;100421.28;;;6.39;100.00
19676;BME280;39539;52.202;9.876;2022-12-07T11:39:36;100423.31;;;6.07;100.00
19676;BME280;39539;52.202;9.876;2022-12-07T11:42:55;100409.78;;;5.95;100.00
19676;BME280;39539;52.202;9.876;2022-12-07T11:45:26;100408.91;;;5.80;100.00
19676;BME280;39539;52.202;9.876;2022-12-07T11:47:58;100405.38;;;5.73;100.00
19676;BME280;39539;52.202;9.876;2022-12-07T11:50:59;100407.09;;;5.66;100.00
19676;BME280;39539;52.202;9.876;2022-12-07T11:56:13;100389.56;;;5.73;100.00
19676;BME280;39539;52.202;9.876;2022-12-07T12:12:18;100387.19;;;5.63;100.00
19676;BME280;39539;52.202;9.876;2022-12-07T12:15:20;100383.38;;;5.51;100.00
19676;BME280;39539;52.202;9.876;2022-12-07T12:18:01;100381.66;;;5.58;100.00
19676;BME280;39539;52.202;9.876;2022-12-07T12:20:37;100385.28;;;5.72;100.00
19676;BME280;39539;52.202;9.876;2022-12-07T12:26:03;100394.19;;;5.85;100.00
19676;BME280;39539;52.202;9.876;2022-12-07T12:28:53;100380.75;;;5.80;100.00
19676;BME280;39539;52.202;9.876;2022-12-07T12:33:50;100374.13;;;5.55;100.00
19676;BME280;39539;52.202;9.876;2022-12-07T12:51:56;100360.16;;;6.05;100.00
19676;BME280;39539;52.202;9.876;2022-12-07T12:54:34;100359.31;;;6.35;100.00
19676;BME280;39539;52.202;9.876;2022-12-07T12:57:27;100365.78;;;6.53;100.00
19676;BME280;39539;52.202;9.876;2022-12-07T13:00:12;100347.63;;;6.65;100.00
19676;BME280;39539;52.202;9.876;2022-12-07T13:02:52;100352.16;;;6.71;100.00
19676;BME280;39539;52.202;9.876;2022-12-07T13:08:25;100346.72;;;6.37;100.00
19676;BME280;39539;52.202;9.876;2022-12-07T13:10:50;100341.06;;;6.18;100.00
19676;BME280;39539;52.202;9.876;2022-12-07T13:18:37;100326.34;;;6.09;100.00
19676;BME280;39539;52.202;9.876;2022-12-07T13:26:39;100336.97;;;6.16;100.00
19676;BME280;39539;52.202;9.876;2022-12-07T13:31:39;100340.63;;;6.15;100.00
19676;BME280;39539;52.202;9.876;2022-12-07T13:34:34;100333.69;;;6.14;100.00
19676;BME280;39539;52.202;9.876;2022-12-07T13:37:23;100323.63;;;5.88;100.00
19676;BME280;39539;52.202;9.876;2022-12-07T13:39:57;100336.34;;;5.99;100.00
19676;BME280;39539;52.202;9.876;2022-12-07T13:45:37;100324.81;;;5.70;100.00
19676;BME280;39539;52.202;9.876;2022-12-07T13:48:33;100323.47;;;5.59;100.00
19676;BME280;39539;52.202;9.876;2022-12-07T13:51:03;100324.09;;;5.61;100.00
19676;BME280;39539;52.202;9.876;2022-12-07T13:53:30;100317.09;;;5.39;100.00
19676;BME280;39539;52.202;9.876;2022-12-07T13:55:57;100318.72;;;5.40;100.00
19676;BME280;39539;52.202;9.876;2022-12-07T13:58:24;100320.47;;;5.33;100.00
19676;BME280;39539;52.202;9.876;2022-12-07T14:00:50;100316.19;;;5.32;100.00
19676;BME280;39539;52.202;9.876;2022-12-07T14:05:43;100314.47;;;5.24;100.00
19676;BME280;39539;52.202;9.876;2022-12-07T14:10:37;100307.91;;;5.05;100.00
19676;BME280;39539;52.202;9.876;2022-12-07T14:16:01;100300.28;;;4.95;100.00
19676;BME280;39539;52.202;9.876;2022-12-07T14:18:36;100309.34;;;4.93;100.00
19676;BME280;39539;52.202;9.876;2022-12-07T14:23:34;100303.69;;;4.81;100.00
19676;BME280;39539;52.202;9.876;2022-12-07T14:26:12;100297.78;;;4.79;100.00
19676;BME280;39539;52.202;9.876;2022-12-07T14:28:40;100305.47;;;4.81;100.00
19676;BME280;39539;52.202;9.876;2022-12-07T14:31:24;100309.66;;;4.75;100.00
19676;BME280;39539;52.202;9.876;2022-12-07T14:33:50;100304.75;;;4.72;100.00
19676;BME280;39539;52.202;9.876;2022-12-07T14:36:15;100303.13;;;4.71;100.00
19676;BME280;39539;52.202;9.876;2022-12-07T14:38:42;100301.06;;;4.58;100.00
19676;BME280;39539;52.202;9.876;2022-12-07T14:41:14;100305.63;;;4.41;100.00
19676;BME280;39539;52.202;9.876;2022-12-07T14:43:59;100298.69;;;4.48;100.00
19676;BME280;39539;52.202;9.876;2022-12-07T14:46:26;100304.59;;;4.50;100.00
19676;BME280;39539;52.202;9.876;2022-12-07T14:48:51;100296.97;;;4.56;100.00
19676;BME280;39539;52.202;9.876;2022-12-07T14:51:18;100311.13;;;4.55;100.00
19676;BME280;39539;52.202;9.876;2022-12-07T14:53:49;100280.16;;;4.42;100.00
19676;BME280;39539;52.202;9.876;2022-12-07T14:56:15;100297.97;;;4.55;100.00
19676;BME280;39539;52.202;9.876;2022-12-07T14:58:42;100290.50;;;4.43;100.00
19676;BME280;39539;52.202;9.876;2022-12-07T15:01:08;100293.19;;;4.35;100.00
19676;BME280;39539;52.202;9.876;2022-12-07T15:03:33;100310.63;;;4.36;100.00
19676;BME280;39539;52.202;9.876;2022-12-07T15:06:13;100293.94;;;4.21;100.00
19676;BME280;39539;52.202;9.876;2022-12-07T15:08:39;100302.84;;;4.20;100.00
19676;BME280;39539;52.202;9.876;2022-12-07T15:11:06;100291.25;;;4.06;100.00
19676;BME280;39539;52.202;9.876;2022-12-07T15:13:32;100317.63;;;4.21;100.00
19676;BME280;39539;52.202;9.876;2022-12-07T15:16:19;100314.09;;;4.05;100.00